Details From CYSB - Sudbury
To CYTS - Timmins
Flight Number -
Tags Generated
Created
Modified
Stats Distance 119 nm / 220 km
Max Altitude 0 ft / 0 m
Waypoints 2
Social Downloads 0
Likes 0
Share VATSIM

Download

Looking for another format? Having issues loading an existing format? Contact us
Advertisement - Login to hide

Notes

Generated

Route

CYSB CYTS

ID Type Via Altitude Latitude Longitude Leg Dist Tot Dist Heading (true) Name
O CYSB APT - 0 ft / 0 m 46.62917˚ -80.80750˚ - 0 nm - -
O CYTS APT - 0 ft / 0 m 48.56972˚ -81.38666˚ 118 nm 118 nm 349° / 348° -

Altitude Profile

Advertisement - Login to hide

CYSB

Details ICAO CYSB (YSB)
Name SUDBURY
Region Canada
Timezone America/Toronto (UTC-4.0)
Stats Elevation 1,141 ft / 348 m (AMSL)
Location 46.626320° -80.798194°
Runways 2
Magnetic Variation 10.294° W

METAR

CYSB 261200Z 04004KT 3/4SM R22/4000VP6000FT/D BR OVC002 16/16 A2980 RMK FG2SF6 SLP093 DENSITY ALT 1700FT

Decode

TAF

TAF AMD TAF AMD CYSB 260940Z 2609/2620 26005KT 6SM BR FEW008 BKN030 TEMPO 2609/2614 1/2SM FG BKN008 FM261400 06008KT P6SM BKN030 PROB30 2617/2620 2SM TSRA BR BKN040CB RMK NXT FCST BY 261400Z

Decode

Departure Runways

ID Width Length Bearing (true) Bearing (mag) Surface Threshold Offset Overrun Length
04 200 ft / 61 m 6,574 ft / 2,004 m 28.46° 38.75° Asphalt 0 ft / 0 m 1,000 ft / 305 m
12 150 ft / 46 m 5,009 ft / 1,527 m 106.45° 116.74° Asphalt 0 ft / 0 m 600 ft / 183 m
22 200 ft / 61 m 6,574 ft / 2,004 m 208.47° 218.76° Asphalt 0 ft / 0 m 1,000 ft / 305 m
30 150 ft / 46 m 5,009 ft / 1,527 m 286.47° 296.76° Asphalt 0 ft / 0 m 400 ft / 122 m

CYTS

Details ICAO CYTS (YTS)
Name TIMMINS
Region Canada
Timezone America/Toronto (UTC-4.0)
Stats Elevation 967 ft / 295 m (AMSL)
Location 48.570140° -81.375487°
Runways 2
Magnetic Variation 10.479° W

METAR

CYTS 261100Z 05007KT 15SM OVC030 09/07 A2983 RMK SC8 SLP109

Decode

TAF

TAF CYTS 260738Z 2608/2620 06008KT P6SM SCT020 BKN060 TEMPO 2608/2614 5SM -SHRA BR BKN020 BKN050 FM261400 08008KT P6SM BKN060 FM261800 09010KT P6SM BKN090 RMK NXT FCST BY 261400Z

Decode

Destination Runways

ID Width Length Bearing (true) Bearing (mag) Surface Threshold Offset Overrun Length
03 150 ft / 46 m 5,974 ft / 1,821 m 21.05° 31.53° Asphalt 0 ft / 0 m 0 ft / 0 m
10 150 ft / 46 m 4,897 ft / 1,493 m 91.19° 101.67° Asphalt 0 ft / 0 m 0 ft / 0 m
21 150 ft / 46 m 5,974 ft / 1,821 m 201.06° 211.54° Asphalt 0 ft / 0 m 0 ft / 0 m
28 150 ft / 46 m 4,897 ft / 1,493 m 271.20° 281.68° Asphalt 0 ft / 0 m 0 ft / 0 m

Approach Navaids

Runway Type Ident Frequency Range Bearing (true) Bearing (mag) Slope Elevation
03 Localiser ITS 109.70 MHz 18 nm / 33 km 21.13° 31.61° - 967 ft / 295 m (AMSL)
03 Glidescope ITS 109.70 MHz 10 nm / 19 km 21.06° 31.53° 3.00° 967 ft / 295 m (AMSL)

Popular Alternatives